메인 페이지
위성 영상 10일간 예보기후바다 날씨 사이클론 낙뢰 공항FAQ 뉴스레터 소개
날씨 : 유럽 아프리카 북아메리카 남아메리카 아시아 오스트레일리아-오세아니아 기타
언어 문의하기

청도, 중국

위도: 36-04N, 경도: 120-20E, 고도: 77m


METAR: ZSQD 251400Z 33004MPS 3000 BR SCT007 OVC026 03/01 Q1024 NOSIG
TAF: ZSQD 250910Z 2512/2612 34004MPS 3500 BR SCT020 TX06/2606Z TNM02/21Z

시각: 22:12 (14:12 UTC)

현재 날씨관측

예보는 12분 전, 14:00시(UTC)에 발표되었습니다.
북북서8kt
온도 3°C
습도 87%
기압 1024 hPa
시정: 3000m
고도 700ft 상공 구름 보통
고도 2600ft 상공 흐림
박무

단위계 변경

예보

예보는 5 시간 2분 전, 09:10시(UTC)에 발표되었습니다.
예보 대상 시간: 25일 12시부터 26일 12시까지 (UTC)
북북서8kt
시정: 3500m
고도 2000ft 상공 구름 보통
박무
이 웹사이트상의 정보에 대하여 어떠한 법적 책임을 지지 않습니다 (면책 조항)
날씨 : 유럽 아프리카 북아메리카 남아메리카 아시아 오스트레일리아-오세아니아 기타
위성 영상 10일간 예보기후바다 날씨 사이클론 낙뢰 공항FAQ 언어 문의하기 뉴스레터 소개